Weather History for Monroe, MI

Change the Weather History Date:

Saturday, March 9, 2013

  Actual Average Record
Temperature  
Mean Temperature 34 °F -  
Max Temperature 42 °F 43 °F 74 °F (1987)
Min Temperature 26 °F 25 °F -1 °F (1943)
Degree Days  
Heating Degree Days 31    
Moisture  
Dew Point 30 °F    
Average Humidity 84    
Maximum Humidity 100    
Minimum Humidity 65    
Precipitation  
Precipitation 0.00 in - - ()
Sea Level Pressure  
Sea Level Pressure 30.25 in    
Wind  
Wind Speed 4 mph (ESE)    
Max Wind Speed 13 mph    
Max Gust Speed 18 mph    
Visibility 8 miles    
Events Rain    
Averages and records for this station are not official NWS values.
T = Trace of Precipitation, MM = Missing Value Source: NWS Daily Summary

Daily Weather History Graph

Daily Weather History Graph

Search for Another Location

Airport:

Trip Planner

Search our weather history database for the weather conditions in past years. The results will help you decide how hot, cold, wet, or windy it might be!

Date:

Astronomy

Mar. 09, 2013 Rise Set
Actual Time 6:55 AM EST 6:33 PM EST
Civil Twilight 6:27 AM EST 7:01 PM EST
Nautical Twilight 5:55 AM EST 7:33 PM EST
Astronomical Twilight 5:22 AM EST 8:06 PM EST
Moon 5:20 AM EST (3/9) 4:33 PM EST (3/9)
Length of Visible Light 12h 34m
Length of Day
11h 38m
Waning Crescent, 5% of the Moon is Illuminated
Mar 9
Waning Crescent
Mar 11
New
Mar 19
First Quarter
Mar 27
Full
Apr 3
Last Quarter

Hourly Weather History & Observations

Time (EST) Temp. Windchill Dew Point Humidity Pressure Visibility Wind Dir Wind Speed Gust Speed Precip Events Conditions
12:12 AM 28.4 °F - 28.4 °F 100% 30.40 in 7.0 mi Calm Calm - N/A   Clear
12:32 AM 28.4 °F - 28.4 °F 100% 30.39 in 7.0 mi Calm Calm - N/A   Clear
12:52 AM 28.4 °F - 28.4 °F 100% 30.39 in 7.0 mi Calm Calm - N/A   Clear
1:12 AM 28.4 °F - 28.4 °F 100% 30.39 in 5.0 mi Calm Calm - N/A   Clear
1:33 AM 30.2 °F - 30.2 °F 100% 30.39 in 7.0 mi Calm Calm - N/A   Clear
1:53 AM 28.4 °F - 28.4 °F 100% 30.38 in 5.0 mi Calm Calm - N/A   Clear
2:13 AM 28.4 °F - 28.4 °F 100% 30.39 in 7.0 mi Calm Calm - N/A   Clear
2:33 AM 30.2 °F - 28.4 °F 93% 30.38 in 7.0 mi Calm Calm - N/A   Clear
2:53 AM 30.2 °F - 28.4 °F 93% 30.37 in 7.0 mi Calm Calm - N/A   Clear
3:13 AM 30.2 °F - 28.4 °F 93% 30.36 in 7.0 mi Calm Calm - N/A   Clear
3:33 AM 28.4 °F - 28.4 °F 100% 30.36 in 5.0 mi Calm Calm - N/A   Clear
3:53 AM 28.4 °F - 28.4 °F 100% 30.35 in 7.0 mi Calm Calm - N/A   Clear
4:13 AM 28.4 °F - 28.4 °F 100% 30.34 in 5.0 mi Calm Calm - N/A   Clear
4:34 AM 28.4 °F - 28.4 °F 100% 30.35 in 5.0 mi Calm Calm - N/A   Clear
4:54 AM 28.4 °F - 28.4 °F 100% 30.35 in 5.0 mi Calm Calm - N/A   Clear
5:14 AM 28.4 °F - 28.4 °F 100% 30.35 in 7.0 mi Calm Calm - N/A   Clear
5:34 AM 28.4 °F - 28.4 °F 100% 30.34 in 7.0 mi Calm Calm - N/A   Clear
5:54 AM 28.4 °F - 28.4 °F 100% 30.35 in 5.0 mi Calm Calm - N/A   Clear
6:14 AM 28.4 °F - 28.4 °F 100% 30.35 in 4.0 mi Calm Calm - N/A   Clear
6:34 AM 28.4 °F - 26.6 °F 93% 30.36 in 2.0 mi Calm Calm - N/A   Clear
6:54 AM 26.6 °F - 26.6 °F 100% 30.36 in 3.0 mi Calm Calm - N/A   Clear
7:14 AM 28.4 °F - 28.4 °F 100% 30.35 in 2.5 mi Calm Calm - N/A   Clear
7:34 AM 28.4 °F - 28.4 °F 100% 30.35 in 4.0 mi Calm Calm - N/A   Clear
7:55 AM 30.2 °F - 30.2 °F 100% 30.35 in 4.0 mi Calm Calm - N/A   Clear
8:15 AM 33.8 °F - 30.2 °F 87% 30.34 in 7.0 mi Calm Calm - N/A   Clear
8:35 AM 35.6 °F 29.9 °F 30.2 °F 81% 30.34 in 10.0 mi SSE 6.9 mph - N/A   Clear
8:55 AM 35.6 °F 29.9 °F 30.2 °F 81% 30.35 in 10.0 mi SSE 6.9 mph - N/A   Clear
9:15 AM 37.4 °F 30.8 °F 30.2 °F 75% 30.35 in 10.0 mi SSE 9.2 mph - N/A   Clear
9:35 AM 37.4 °F 30.3 °F 30.2 °F 75% 30.35 in 10.0 mi SE 10.4 mph - N/A   Clear
9:55 AM 39.2 °F 33.6 °F 30.2 °F 70% 30.34 in 10.0 mi SE 8.1 mph - N/A   Clear
10:15 AM 39.2 °F 32.5 °F 30.2 °F 70% 30.32 in 10.0 mi SSE 10.4 mph - N/A   Clear
10:35 AM 39.2 °F 33.0 °F 30.2 °F 70% 30.32 in 10.0 mi SSE 9.2 mph - N/A   Clear
10:55 AM 39.2 °F 32.0 °F 30.2 °F 70% 30.32 in 10.0 mi South 11.5 mph - N/A   Clear
11:16 AM 39.2 °F 33.6 °F 28.4 °F 65% 30.32 in 10.0 mi SSE 8.1 mph - N/A   Clear
11:31 AM 39.2 °F 33.6 °F 30.2 °F 70% 30.31 in 10.0 mi ESE 8.1 mph - N/A   Clear
11:51 AM 41.0 °F 35.8 °F 30.2 °F 65% 30.31 in 10.0 mi ESE 8.1 mph - N/A   Clear
12:11 PM 41.0 °F 36.4 °F 30.2 °F 65% 30.30 in 10.0 mi ESE 6.9 mph - N/A   Clear
12:31 PM 41.0 °F 35.8 °F 30.2 °F 65% 30.30 in 10.0 mi East 8.1 mph - N/A   Clear
12:51 PM 39.2 °F 35.0 °F 30.2 °F 70% 30.30 in 10.0 mi ESE 5.8 mph - N/A   Clear
1:11 PM 41.0 °F 37.1 °F 30.2 °F 65% 30.28 in 10.0 mi ESE 5.8 mph - N/A   Clear
1:31 PM 41.0 °F 35.2 °F 30.2 °F 65% 30.26 in 10.0 mi ESE 9.2 mph - N/A   Clear
1:51 PM 42.8 °F 37.5 °F 32.0 °F 66% 30.25 in 10.0 mi ESE 9.2 mph - N/A   Clear
2:11 PM 42.8 °F 37.5 °F 32.0 °F 66% 30.23 in 10.0 mi ESE 9.2 mph - N/A   Clear
2:32 PM 42.8 °F 37.0 °F 32.0 °F 66% 30.22 in 10.0 mi ESE 10.4 mph - N/A   Clear
2:52 PM 39.2 °F 33.0 °F 30.2 °F 70% 30.21 in 10.0 mi ESE 9.2 mph - N/A   Clear
3:12 PM 39.2 °F 32.5 °F 30.2 °F 70% 30.19 in 10.0 mi East 10.4 mph - N/A   Clear
3:32 PM 39.2 °F 32.5 °F 30.2 °F 70% 30.18 in 10.0 mi ESE 10.4 mph - N/A   Clear
3:52 PM 41.0 °F 35.8 °F 30.2 °F 65% 30.17 in 10.0 mi ESE 8.1 mph - N/A   Clear
4:12 PM 39.2 °F 33.0 °F 30.2 °F 70% 30.17 in 10.0 mi East 9.2 mph - N/A   Clear
4:32 PM 39.2 °F 32.5 °F 30.2 °F 70% 30.17 in 10.0 mi East 10.4 mph - N/A   Clear
4:52 PM 39.2 °F 32.0 °F 30.2 °F 70% 30.16 in 10.0 mi ESE 11.5 mph - N/A   Clear
5:12 PM 39.2 °F 31.6 °F 30.2 °F 70% 30.16 in 10.0 mi East 12.7 mph - N/A   Clear
5:33 PM 37.4 °F 30.3 °F 30.2 °F 75% 30.15 in 10.0 mi East 10.4 mph - N/A   Clear
5:53 PM 37.4 °F 30.8 °F 30.2 °F 75% 30.15 in 10.0 mi ESE 9.2 mph - N/A   Clear
6:13 PM 37.4 °F 29.8 °F 30.2 °F 75% 30.14 in 10.0 mi ESE 11.5 mph 16.1 mph N/A   Clear
6:33 PM 35.6 °F 29.2 °F 30.2 °F 81% 30.14 in 10.0 mi ESE 8.1 mph - N/A   Clear
6:53 PM 37.4 °F 30.8 °F 32.0 °F 81% 30.13 in 10.0 mi ESE 9.2 mph - N/A   Clear
7:13 PM 35.6 °F 27.1 °F 32.0 °F 87% 30.12 in 10.0 mi ESE 12.7 mph 17.3 mph N/A   Mostly Cloudy
7:33 PM 35.6 °F 28.6 °F 32.0 °F 87% 30.12 in 10.0 mi ESE 9.2 mph 17.3 mph N/A   Overcast
7:53 PM 37.4 °F 29.8 °F 32.0 °F 81% 30.11 in 10.0 mi ESE 11.5 mph 16.1 mph N/A   Overcast
8:13 PM 35.6 °F 28.0 °F 33.8 °F 93% 30.11 in 10.0 mi ESE 10.4 mph - N/A Rain Light Rain
8:33 PM 35.6 °F 27.5 °F 33.8 °F 93% 30.09 in 10.0 mi ESE 11.5 mph 18.4 mph N/A   Overcast
8:53 PM 37.4 °F 30.3 °F 33.8 °F 87% 30.09 in 10.0 mi ESE 10.4 mph - N/A   Overcast
9:14 PM 37.4 °F 32.8 °F 33.8 °F 87% 30.09 in 10.0 mi ESE 5.8 mph - N/A   Overcast
9:34 PM 37.4 °F 32.8 °F 33.8 °F 87% 30.09 in 10.0 mi ESE 5.8 mph - N/A   Light Drizzle
9:54 PM 37.4 °F 32.8 °F 33.8 °F 87% 30.09 in 10.0 mi ESE 5.8 mph - N/A   Overcast
10:14 PM 37.4 °F 32.8 °F 33.8 °F 87% 30.07 in 10.0 mi ESE 5.8 mph - N/A   Overcast
10:34 PM 37.4 °F 32.8 °F 33.8 °F 87% 30.07 in 10.0 mi East 5.8 mph - N/A   Overcast
10:54 PM 37.4 °F 32.8 °F 33.8 °F 87% 30.05 in 10.0 mi ESE 5.8 mph - N/A   Scattered Clouds
11:14 PM 37.4 °F 33.8 °F 33.8 °F 87% 30.05 in 10.0 mi East 4.6 mph - N/A   Scattered Clouds
11:34 PM 37.4 °F 34.9 °F 33.8 °F 87% 30.04 in 10.0 mi East 3.5 mph - N/A   Clear
11:55 PM 35.6 °F 32.8 °F 33.8 °F 93% 30.03 in 10.0 mi East 3.5 mph - N/A   Clear